Time;durP1;ratioP1;P1;durP2;ratioP2;P2;SDS_P1;SDS_P2;PMS_P1;PMS_P2;Temp;Humidity;BMP_temperature;BMP_pressure;BME280_temperature;BME280_humidity;BME280_pressure;Samples;Min_cycle;Max_cycle;Signal;HPM_P1;HPM_P2
2022/12/15 00:40:03;;;;;;;13.43;6.72;;;0.20;99.90;;;;;;5116942;27;20042;-82
2022/12/15 00:42:29;;;;;;;9.85;6.35;;;1.00;99.90;;;;;;5113729;28;20062;-82
2022/12/15 00:44:58;;;;;;;12.50;6.18;;;0.60;99.90;;;;;;5104352;28;20048;-82
2022/12/15 00:47:24;;;;;;;11.40;6.68;;;1.10;99.90;;;;;;5113422;28;20050;-82
2022/12/15 01:20:19;;;;;;;10.90;5.38;;;-0.20;99.90;;;;;;5096562;28;20059;-82
2022/12/15 01:22:51;;;;;;;9.55;5.60;;;-0.60;99.90;;;;;;5080273;28;20434;-82
2022/12/15 01:25:19;;;;;;;8.45;5.78;;;0.70;99.90;;;;;;5094431;28;20139;-82
2022/12/15 01:27:45;;;;;;;9.55;5.45;;;0.00;99.90;;;;;;5104879;27;20051;-82
2022/12/15 01:30:14;;;;;;;10.15;5.60;;;0.70;99.90;;;;;;5120360;27;20086;-81
2022/12/15 01:32:39;;;;;;;10.27;5.97;;;-0.50;99.90;;;;;;5109743;28;20040;-82
2022/12/15 01:35:06;;;;;;;9.88;5.57;;;-0.50;99.90;;;;;;5127014;28;20100;-82
2022/12/15 01:37:33;;;;;;;9.55;5.30;;;-0.50;99.90;;;;;;5097135;28;20130;-82
2022/12/15 01:42:43;;;;;;;8.43;5.53;;;1.10;99.90;;;;;;5096735;28;20051;-82
2022/12/15 01:45:29;;;;;;;9.38;5.32;;;1.20;99.90;;;;;;5124673;28;20392;-82
2022/12/15 01:48:01;;;;;;;9.43;5.53;;;-0.60;99.90;;;;;;5095071;28;20079;-82
2022/12/15 01:50:28;;;;;;;11.68;5.45;;;0.80;99.90;;;;;;5083337;28;20056;-82
2022/12/15 01:52:54;;;;;;;11.50;5.45;;;0.70;99.90;;;;;;5058318;28;20052;-82
2022/12/15 01:55:24;;;;;;;12.73;5.70;;;-0.60;99.90;;;;;;5092289;28;20105;-82
2022/12/15 01:57:52;;;;;;;11.43;6.15;;;-0.70;99.90;;;;;;5090214;28;20056;-82
2022/12/15 02:00:18;;;;;;;16.90;6.00;;;-0.70;99.90;;;;;;5091920;28;20056;-82
2022/12/15 02:02:44;;;;;;;10.23;5.38;;;-0.70;99.90;;;;;;5107969;28;20142;-82
2022/12/15 02:05:09;;;;;;;10.38;5.40;;;-0.70;99.90;;;;;;5112460;28;20052;-82
2022/12/15 02:07:35;;;;;;;10.55;5.75;;;-0.70;99.90;;;;;;5112926;28;20054;-82
2022/12/15 02:10:06;;;;;;;9.18;5.25;;;0.80;99.90;;;;;;5111559;28;20048;-82
2022/12/15 02:12:56;;;;;;;10.20;5.90;;;-0.60;99.90;;;;;;5111661;28;20407;-82
2022/12/15 02:15:39;;;;;;;9.65;6.20;;;-0.60;99.90;;;;;;5110799;28;20059;-82
2022/12/15 02:18:43;;;;;;;11.13;6.35;;;-0.60;99.90;;;;;;5126550;28;20050;-82
2022/12/15 02:21:44;;;;;;;11.00;6.10;;;-0.60;99.90;;;;;;5105013;27;20073;-82
2022/12/15 02:24:32;;;;;;;12.40;6.35;;;0.80;99.90;;;;;;5000308;28;20421;-82
2022/12/15 02:27:06;;;;;;;11.18;6.88;;;-0.70;99.90;;;;;;5090382;28;20086;-82
2022/12/15 02:30:06;;;;;;;12.23;6.47;;;-0.70;99.90;;;;;;5079548;28;20127;-82
2022/12/15 02:32:47;;;;;;;10.98;6.88;;;-0.80;99.90;;;;;;5134649;27;20053;-82
2022/12/15 02:35:33;;;;;;;11.63;7.18;;;-0.80;99.90;;;;;;5097922;27;20067;-82
2022/12/15 02:37:59;;;;;;;13.45;7.20;;;-0.80;99.90;;;;;;5098021;28;20426;-82
2022/12/15 02:40:25;;;;;;;12.18;7.10;;;-0.80;99.90;;;;;;5106287;27;20067;-82
2022/12/15 02:42:54;;;;;;;11.50;7.07;;;-0.80;99.90;;;;;;5117280;27;20047;-82
2022/12/15 02:45:43;;;;;;;9.45;6.63;;;-0.80;99.90;;;;;;5097644;28;20051;-82
2022/12/15 02:48:32;;;;;;;12.95;7.20;;;-0.80;99.90;;;;;;5097511;28;20048;-82
2022/12/15 02:51:22;;;;;;;12.07;7.47;;;-0.90;99.90;;;;;;5097913;28;20201;-82
2022/12/15 02:54:10;;;;;;;13.38;7.30;;;-1.00;99.90;;;;;;5080570;28;20059;-82
2022/12/15 02:56:42;;;;;;;14.82;7.43;;;-1.00;99.90;;;;;;5080637;28;20079;-82
2022/12/15 02:59:16;;;;;;;12.18;6.93;;;-1.10;99.90;;;;;;5110664;28;20087;-82
2022/12/15 03:01:53;;;;;;;10.65;6.70;;;-1.00;99.90;;;;;;5114516;28;20522;-82
2022/12/15 03:04:19;;;;;;;11.52;6.93;;;0.80;99.90;;;;;;5115047;28;20056;-83
2022/12/15 03:06:52;;;;;;;12.20;6.90;;;-0.80;99.90;;;;;;5117130;28;20131;-82
2022/12/15 03:09:17;;;;;;;11.70;7.10;;;0.00;99.90;;;;;;5116033;28;20043;-82
2022/12/15 03:11:43;;;;;;;14.38;6.78;;;0.50;99.90;;;;;;5114602;28;20139;-82
2022/12/15 03:14:09;;;;;;;11.43;6.32;;;-1.00;99.90;;;;;;5115398;27;20044;-81
2022/12/15 03:16:35;;;;;;;11.77;6.75;;;0.40;99.90;;;;;;5097545;28;20609;-82
2022/12/15 03:19:00;;;;;;;12.13;6.13;;;0.00;99.90;;;;;;5097752;28;20052;-82
2022/12/15 03:21:26;;;;;;;10.85;6.20;;;-1.00;99.90;;;;;;5097026;28;20083;-82
2022/12/15 03:23:52;;;;;;;10.35;5.70;;;-1.10;99.90;;;;;;5115201;27;20154;-83
2022/12/15 03:26:17;;;;;;;10.60;5.18;;;-1.10;99.90;;;;;;5096962;28;20124;-82
2022/12/15 03:28:43;;;;;;;9.85;5.85;;;-1.10;99.90;;;;;;5113328;28;20044;-83
2022/12/15 03:31:09;;;;;;;7.70;5.28;;;-1.10;99.90;;;;;;5099321;27;20478;-82
2022/12/15 03:33:34;;;;;;;8.88;5.25;;;-1.00;99.90;;;;;;5116990;27;20047;-82
2022/12/15 03:36:00;;;;;;;8.68;5.15;;;0.80;99.90;;;;;;5115423;27;20047;-82
2022/12/15 03:38:26;;;;;;;10.18;5.10;;;0.50;99.90;;;;;;5115755;27;20136;-82
2022/12/15 03:40:51;;;;;;;8.75;5.05;;;-0.90;99.90;;;;;;5097740;27;20052;-82
2022/12/15 03:43:17;;;;;;;8.35;4.53;;;-0.90;99.90;;;;;;5117575;27;20473;-82
2022/12/15 03:45:42;;;;;;;11.75;4.72;;;-0.90;99.90;;;;;;5098450;27;20447;-82
2022/12/15 03:48:08;;;;;;;10.18;4.30;;;-1.00;99.90;;;;;;5125252;27;20044;-82
2022/12/15 03:50:34;;;;;;;9.73;5.20;;;-0.70;99.90;;;;;;5127831;27;20071;-82
2022/12/15 03:53:02;;;;;;;9.90;4.43;;;-1.00;99.90;;;;;;5114610;27;20111;-83
2022/12/15 03:55:27;;;;;;;6.90;3.83;;;-1.00;99.90;;;;;;5100110;27;20051;-82
2022/12/15 03:57:53;;;;;;;8.00;3.90;;;0.80;99.90;;;;;;5082138;27;20066;-83
2022/12/15 04:00:20;;;;;;;8.02;3.55;;;-1.10;99.90;;;;;;5099550;28;20403;-82
2022/12/15 04:02:47;;;;;;;8.57;4.18;;;-1.00;99.90;;;;;;5097367;28;20048;-82
2022/12/15 04:05:16;;;;;;;9.18;3.60;;;-1.00;99.90;;;;;;5096904;28;20167;-82
2022/12/15 04:07:42;;;;;;;8.50;3.95;;;0.40;99.90;;;;;;5080590;27;20060;-82
2022/12/15 04:10:08;;;;;;;11.77;3.97;;;-1.00;99.90;;;;;;5116515;27;20052;-83
2022/12/15 04:12:33;;;;;;;7.45;3.38;;;-0.90;99.90;;;;;;5114626;28;20134;-83
2022/12/15 04:14:59;;;;;;;8.85;3.65;;;0.20;99.90;;;;;;5079724;28;20087;-83
2022/12/15 04:17:25;;;;;;;8.35;3.30;;;-1.00;99.90;;;;;;5115001;27;20047;-83
2022/12/15 04:20:08;;;;;;;8.25;3.38;;;0.30;99.90;;;;;;5115335;27;20039;-82
2022/12/15 04:22:42;;;;;;;7.45;2.92;;;-1.00;99.90;;;;;;5114986;27;20050;-83
2022/12/15 05:33:58;;;;;;;12.35;6.57;;;-0.40;99.90;;;;;;5112852;28;20093;-83
2022/12/15 05:36:24;;;;;;;13.20;6.88;;;-0.80;99.90;;;;;;5111433;28;20090;-83
2022/12/15 05:38:51;;;;;;;10.73;6.78;;;-0.80;99.90;;;;;;5111570;28;20436;-83
2022/12/15 05:41:18;;;;;;;12.10;7.13;;;0.70;99.90;;;;;;5116159;28;20429;-83
2022/12/15 05:43:44;;;;;;;11.75;7.15;;;-0.80;99.90;;;;;;5115020;28;20095;-83
2022/12/15 05:46:10;;;;;;;13.60;6.82;;;-0.80;99.90;;;;;;5113514;28;20403;-83
2022/12/15 05:48:36;;;;;;;16.85;7.53;;;0.90;99.90;;;;;;5121113;28;20066;-82
2022/12/15 05:51:09;;;;;;;16.52;9.10;;;-0.40;99.90;;;;;;5121049;28;20043;-83
2022/12/15 05:53:36;;;;;;;11.20;7.50;;;-0.80;99.90;;;;;;5113341;27;20051;-83
2022/12/15 05:56:09;;;;;;;12.70;7.07;;;-0.40;99.90;;;;;;5117696;27;20134;-83
2022/12/15 05:58:35;;;;;;;12.30;7.28;;;-0.20;99.90;;;;;;5136710;27;20422;-83
2022/12/15 06:01:10;;;;;;;11.38;7.05;;;-0.90;99.90;;;;;;5135318;27;20122;-83
2022/12/15 06:03:37;;;;;;;13.15;7.95;;;-0.80;99.90;;;;;;5106639;28;20132;-83
2022/12/15 06:06:04;;;;;;;14.43;7.88;;;0.70;99.90;;;;;;5082619;27;20052;-82
2022/12/15 06:08:32;;;;;;;11.65;7.78;;;-0.90;99.90;;;;;;5118186;27;20055;-83
2022/12/15 06:10:58;;;;;;;12.20;7.53;;;0.70;99.90;;;;;;5095438;28;20124;-83
2022/12/15 06:13:25;;;;;;;13.32;7.72;;;-0.90;99.90;;;;;;5116476;27;20086;-83
2022/12/15 06:15:55;;;;;;;10.85;7.22;;;-0.80;99.90;;;;;;5082342;28;20055;-83
2022/12/15 06:18:21;;;;;;;13.88;7.55;;;0.20;99.90;;;;;;5097318;27;20063;-83
2022/12/15 06:20:47;;;;;;;15.00;7.35;;;-0.10;99.90;;;;;;5097885;27;20039;-83
2022/12/15 06:23:13;;;;;;;13.82;7.65;;;1.10;99.90;;;;;;5123323;27;20054;-83
2022/12/15 06:25:38;;;;;;;14.50;8.00;;;0.80;99.90;;;;;;5116858;27;20504;-83
2022/12/15 06:28:04;;;;;;;10.30;7.28;;;0.70;99.90;;;;;;5085748;28;20047;-82
2022/12/15 06:30:30;;;;;;;14.75;7.43;;;0.40;99.90;;;;;;5098715;28;20484;-83
2022/12/15 06:32:56;;;;;;;10.95;6.82;;;-0.90;99.90;;;;;;5095204;27;20085;-82
2022/12/15 06:35:21;;;;;;;10.93;6.72;;;0.70;99.90;;;;;;5133984;27;20083;-82
2022/12/15 06:37:47;;;;;;;12.43;7.22;;;0.20;99.90;;;;;;5119457;27;20054;-83
2022/12/15 06:40:13;;;;;;;12.63;6.50;;;-0.80;99.90;;;;;;5109595;28;20071;-83
2022/12/15 06:42:38;;;;;;;14.50;7.43;;;0.70;99.90;;;;;;5126395;27;20055;-83
2022/12/15 06:45:04;;;;;;;15.60;6.30;;;1.10;99.90;;;;;;5117920;27;20054;-83
2022/12/15 06:47:30;;;;;;;10.88;6.88;;;-0.60;99.90;;;;;;5085271;28;20048;-84
2022/12/15 06:49:56;;;;;;;12.02;6.60;;;-0.40;99.90;;;;;;5114914;28;20062;-83
2022/12/15 06:52:22;;;;;;;12.57;6.75;;;0.10;99.90;;;;;;5108791;28;20051;-83
2022/12/15 06:54:47;;;;;;;10.90;7.30;;;1.50;99.90;;;;;;5097424;28;20059;-83
2022/12/15 06:57:13;;;;;;;12.55;7.15;;;1.10;99.90;;;;;;5117020;28;20078;-83
2022/12/15 06:59:39;;;;;;;11.60;6.35;;;0.20;99.90;;;;;;5116121;28;20087;-83
2022/12/15 07:02:13;;;;;;;13.48;7.18;;;-0.20;99.90;;;;;;5095685;28;20052;-83
2022/12/15 07:04:39;;;;;;;13.80;7.15;;;0.40;99.90;;;;;;5086595;28;20048;-82
2022/12/15 07:07:05;;;;;;;11.60;6.97;;;-0.30;99.90;;;;;;5095471;28;20054;-83
2022/12/15 07:09:30;;;;;;;10.98;6.63;;;1.30;99.90;;;;;;5115638;28;20047;-81
2022/12/15 07:11:56;;;;;;;13.32;6.10;;;1.20;99.90;;;;;;5104156;28;20047;-83
2022/12/15 07:14:22;;;;;;;13.13;6.28;;;1.50;99.90;;;;;;5108977;27;20074;-82
2022/12/15 07:16:48;;;;;;;12.02;6.65;;;-0.10;99.90;;;;;;5112169;28;20130;-83
2022/12/15 07:19:14;;;;;;;14.32;6.82;;;1.80;99.90;;;;;;5097752;28;20433;-82
2022/12/15 07:21:40;;;;;;;14.10;7.20;;;-1.00;99.90;;;;;;5115204;28;20384;-82
2022/12/15 07:24:06;;;;;;;11.80;7.05;;;-0.10;99.90;;;;;;5128841;27;20043;-83
2022/12/15 07:26:32;;;;;;;13.07;7.50;;;-0.10;99.90;;;;;;5116761;27;20054;-82
2022/12/15 07:28:58;;;;;;;12.80;6.95;;;0.60;99.90;;;;;;5114639;27;20051;-83
2022/12/15 07:31:24;;;;;;;11.50;6.60;;;1.80;99.90;;;;;;5135371;27;20060;-83
2022/12/15 07:33:51;;;;;;;14.02;7.25;;;-0.10;99.90;;;;;;5135138;27;20045;-82
2022/12/15 07:36:17;;;;;;;14.00;6.40;;;-0.10;99.90;;;;;;5100025;27;20059;-82
2022/12/15 07:38:44;;;;;;;14.98;7.82;;;1.60;99.90;;;;;;5099578;27;20148;-83
2022/12/15 07:41:10;;;;;;;10.45;6.68;;;-0.10;99.90;;;;;;5135660;27;20445;-83
2022/12/15 07:43:36;;;;;;;9.95;6.45;;;-0.10;99.90;;;;;;5133099;27;20070;-83
2022/12/15 07:46:03;;;;;;;15.25;6.32;;;-0.10;99.90;;;;;;5097489;28;20044;-83
2022/12/15 07:48:29;;;;;;;12.70;6.47;;;-0.10;99.90;;;;;;5097119;28;20394;-84
2022/12/15 07:50:58;;;;;;;19.60;6.80;;;0.30;99.90;;;;;;5135621;27;20108;-84
2022/12/15 07:53:26;;;;;;;12.38;6.85;;;0.40;99.90;;;;;;5116504;27;20047;-83
2022/12/15 07:55:59;;;;;;;13.07;5.88;;;1.50;99.90;;;;;;5134732;27;20059;-83
2022/12/15 07:58:28;;;;;;;14.73;6.25;;;0.20;99.90;;;;;;5133553;27;20495;-84
2022/12/15 08:01:02;;;;;;;10.38;6.20;;;0.30;99.90;;;;;;5099507;27;20146;-83
2022/12/15 08:03:28;;;;;;;10.75;5.78;;;-0.40;99.90;;;;;;5114388;27;20051;-84
2022/12/15 08:05:54;;;;;;;14.82;6.50;;;0.40;99.90;;;;;;5095972;28;20408;-84
2022/12/15 08:08:21;;;;;;;10.75;6.32;;;0.60;99.90;;;;;;5113689;28;20065;-83
2022/12/15 08:10:47;;;;;;;11.48;6.43;;;2.10;99.90;;;;;;5126451;27;20043;-83
2022/12/15 08:13:13;;;;;;;11.93;6.03;;;2.20;99.90;;;;;;5095832;28;20077;-83
2022/12/15 08:15:40;;;;;;;11.88;6.18;;;2.40;99.90;;;;;;5109857;27;20050;-83
2022/12/15 08:18:07;;;;;;;12.52;6.38;;;1.20;99.90;;;;;;5104320;28;20125;-84
2022/12/15 08:20:34;;;;;;;9.95;6.13;;;1.10;99.90;;;;;;5114902;28;20055;-84
2022/12/15 08:23:00;;;;;;;12.20;6.80;;;0.50;99.90;;;;;;5115134;27;20043;-83
2022/12/15 08:25:29;;;;;;;17.00;6.80;;;2.00;99.90;;;;;;5077276;28;20044;-84
2022/12/15 08:27:55;;;;;;;9.75;6.45;;;0.60;99.90;;;;;;5093521;28;20051;-84
2022/12/15 08:30:22;;;;;;;10.40;6.35;;;2.30;99.90;;;;;;5112446;28;20059;-84
2022/12/15 08:32:48;;;;;;;12.90;6.88;;;2.10;99.90;;;;;;5093877;28;20475;-84
2022/12/15 08:35:13;;;;;;;11.35;6.95;;;2.20;99.90;;;;;;5105420;27;20074;-82
2022/12/15 08:37:39;;;;;;;14.70;6.80;;;1.60;99.90;;;;;;5113348;27;20051;-81
2022/12/15 08:40:06;;;;;;;13.32;6.78;;;1.60;99.90;;;;;;5098466;28;20087;-82
2022/12/15 08:42:33;;;;;;;12.43;6.72;;;0.60;99.90;;;;;;5095192;28;20057;-81
2022/12/15 08:44:59;;;;;;;15.10;7.28;;;0.70;99.90;;;;;;5099772;28;20051;-81
2022/12/15 08:47:25;;;;;;;13.02;6.18;;;1.00;99.90;;;;;;5095068;28;20047;-81
2022/12/15 08:49:53;;;;;;;11.40;5.85;;;0.80;99.90;;;;;;5126860;27;20054;-84
2022/12/15 08:52:19;;;;;;;11.55;6.45;;;1.70;99.90;;;;;;5078361;27;20095;-84
2022/12/15 08:54:45;;;;;;;9.60;5.72;;;0.80;99.90;;;;;;5113840;28;20114;-85
2022/12/15 08:57:10;;;;;;;9.82;5.88;;;2.30;99.90;;;;;;5104288;27;20051;-84
2022/12/15 08:59:36;;;;;;;12.68;5.80;;;1.00;99.90;;;;;;5099282;27;20078;-85
2022/12/15 09:02:02;;;;;;;8.10;5.32;;;2.50;99.90;;;;;;5100222;27;20088;-85
2022/12/15 09:04:28;;;;;;;11.65;5.55;;;1.50;99.90;;;;;;5134890;27;20062;-90
2022/12/15 09:06:53;;;;;;;10.20;5.20;;;1.50;99.90;;;;;;5100127;27;20047;-88
2022/12/15 09:09:19;;;;;;;11.63;5.25;;;2.90;99.90;;;;;;5083898;28;20047;-91
2022/12/15 09:11:45;;;;;;;9.05;5.68;;;2.90;99.90;;;;;;5092329;28;20134;-80
2022/12/15 09:14:11;;;;;;;11.88;5.38;;;3.60;99.90;;;;;;5091377;28;20066;-82
2022/12/15 09:16:36;;;;;;;14.65;5.75;;;2.60;99.90;;;;;;5082034;28;20053;-85
2022/12/15 09:19:02;;;;;;;10.60;5.47;;;2.20;99.90;;;;;;5084725;28;20051;-83
2022/12/15 09:21:29;;;;;;;12.48;5.72;;;3.10;99.90;;;;;;5113847;28;20118;-83
2022/12/15 09:23:59;;;;;;;11.88;5.88;;;1.90;99.90;;;;;;5099633;28;20051;-87
2022/12/15 09:26:26;;;;;;;9.25;5.63;;;3.00;99.90;;;;;;5079166;28;20058;-87
2022/12/15 09:28:55;;;;;;;12.32;6.03;;;2.60;99.90;;;;;;5078749;28;20047;-84
2022/12/15 09:31:21;;;;;;;10.18;6.00;;;3.60;99.90;;;;;;5096468;28;20503;-84
2022/12/15 09:33:48;;;;;;;12.20;5.78;;;4.00;99.90;;;;;;5079399;28;20043;-83
2022/12/15 09:36:14;;;;;;;10.75;5.55;;;5.40;99.90;;;;;;5079014;28;20051;-83
2022/12/15 09:38:41;;;;;;;13.85;6.78;;;;;;;;;;5095406;28;20085;-85
2022/12/15 09:41:09;;;;;;;13.13;7.03;;;;;;;;;;5077904;28;20047;-84
2022/12/15 09:43:37;;;;;;;11.20;6.05;;;;;;;;;;5079985;28;20130;-84
2022/12/15 09:46:07;;;;;;;9.82;5.65;;;;;;;;;;5079163;28;20372;-84
2022/12/15 09:48:40;;;;;;;9.70;5.63;;;;;;;;;;5095970;28;20043;-84
2022/12/15 09:51:08;;;;;;;10.35;5.85;;;;;;;;;;5078961;28;20054;-85
2022/12/15 09:53:35;;;;;;;12.32;5.55;;;;;;;;;;5078576;28;20105;-85
2022/12/15 09:56:04;;;;;;;11.15;5.70;;;;;;;;;;5094943;28;20125;-85
2022/12/15 09:58:49;;;;;;;13.73;5.53;;;;;;;;;;5077315;28;20186;-85
2022/12/15 10:01:24;;;;;;;11.63;5.63;;;;;;;;;;5078687;28;20075;-85
2022/12/15 10:04:00;;;;;;;8.85;5.20;;;;;;;;;;5078874;28;20050;-85
2022/12/15 10:06:29;;;;;;;10.55;5.65;;;;;;;;;;5114654;28;20055;-84
2022/12/15 10:08:58;;;;;;;9.60;5.22;;;;;;;;;;5103064;28;20059;-84
2022/12/15 10:11:42;;;;;;;8.80;5.15;;;;;;;;;;5100810;28;20047;-84
2022/12/15 10:14:27;;;;;;;11.30;5.43;;;;;;;;;;5096481;28;20051;-84
2022/12/15 10:16:53;;;;;;;8.70;5.47;;;;;;;;;;5085214;28;20126;-81
2022/12/15 10:19:34;;;;;;;8.48;5.35;;;;;;;;;;5102721;28;20059;-84
2022/12/15 10:22:00;;;;;;;9.93;5.82;;;;;;;;;;5122128;28;20058;-84
2022/12/15 10:24:29;;;;;;;8.65;5.43;;;;;;;;;;5100557;28;20052;-83
2022/12/15 10:27:16;;;;;;;9.13;5.20;;;;;;;;;;5110592;28;20059;-84
2022/12/15 10:29:45;;;;;;;9.80;4.97;;;;;;;;;;5050582;28;20060;-84
2022/12/15 10:32:19;;;;;;;11.38;5.43;;;;;;;;;;5075418;28;20055;-84
2022/12/15 10:34:45;;;;;;;13.90;5.68;;;;;;;;;;5075000;28;20059;-83
2022/12/15 10:37:17;;;;;;;8.98;4.90;;;;;;;;;;5072970;28;20572;-83
2022/12/15 10:39:46;;;;;;;8.60;5.10;;;;;;;;;;5073696;28;20059;-82
2022/12/15 10:42:12;;;;;;;8.27;4.63;;;;;;;;;;5116485;28;20080;-85
2022/12/15 10:44:40;;;;;;;10.23;5.10;;;;;;;;;;5116526;27;20073;-85
2022/12/15 10:47:11;;;;;;;9.35;4.85;;;;;;;;;;5105286;27;20043;-85
2022/12/15 10:49:37;;;;;;;12.77;5.22;;;;;;;;;;5099367;28;20111;-86
2022/12/15 10:52:03;;;;;;;10.32;4.68;;;;;;;;;;5107015;27;20185;-87
2022/12/15 10:54:34;;;;;;;10.27;4.90;;;;;;;;;;5095261;27;20044;-86
2022/12/15 10:57:03;;;;;;;10.13;5.00;;;;;;;;;;5096420;28;20044;-84
2022/12/15 10:59:30;;;;;;;8.25;4.97;;;;;;;;;;5085421;28;20138;-84
2022/12/15 11:02:16;;;;;;;8.02;5.00;;;;;;;;;;5097673;27;20044;-84
2022/12/15 11:04:53;;;;;;;9.15;4.72;;;;;;;;;;5105831;27;20377;-84
2022/12/15 11:07:20;;;;;;;11.15;4.95;;;;;;;;;;5135409;27;20456;-84
2022/12/15 11:09:48;;;;;;;8.23;4.72;;;;;;;;;;5117818;27;20043;-85
2022/12/15 11:15:31;;;;;;;10.63;5.05;;;;;;;;;;5096527;28;20044;-85
2022/12/15 11:18:00;;;;;;;11.65;4.90;;;;;;;;;;5100139;27;20043;-85
2022/12/15 11:20:28;;;;;;;9.30;4.60;;;;;;;;;;5136983;27;20066;-85
2022/12/15 11:22:57;;;;;;;10.88;4.90;;;;;;;;;;5095132;28;20048;-86
2022/12/15 11:25:28;;;;;;;11.95;5.00;;;;;;;;;;5117848;27;20043;-85
2022/12/15 11:27:56;;;;;;;8.38;4.72;;;;;;;;;;5134430;27;20043;-85
2022/12/15 11:30:24;;;;;;;9.00;4.47;;;;;;;;;;5115584;27;20050;-86
2022/12/15 11:32:56;;;;;;;10.18;4.47;;;5.40;99.90;;;;;;5116299;27;20051;-85
2022/12/15 11:35:57;;;;;;;9.00;4.40;;;16.30;90.70;;;;;;5116388;27;20107;-87
2022/12/15 11:38:37;;;;;;;8.93;4.40;;;16.50;90.30;;;;;;5040834;27;20061;-86
2022/12/15 11:41:29;;;;;;;11.18;4.88;;;16.90;88.80;;;;;;5117391;27;20139;-86
2022/12/15 11:44:14;;;;;;;8.00;3.90;;;17.30;87.70;;;;;;5115298;27;20089;-87
2022/12/15 11:47:25;;;;;;;7.63;4.13;;;17.40;84.90;;;;;;5077162;28;20105;-84
2022/12/15 11:50:19;;;;;;;9.88;3.92;;;17.40;84.10;;;;;;5058610;28;20083;-80
2022/12/15 11:53:07;;;;;;;8.23;4.30;;;17.20;84.70;;;;;;5091278;28;20115;-81
2022/12/15 11:55:59;;;;;;;8.52;3.80;;;18.30;82.10;;;;;;5072809;28;20145;-80
2022/12/15 11:58:55;;;;;;;7.65;3.92;;;18.70;79.90;;;;;;5090601;28;20062;-79
2022/12/15 12:01:24;;;;;;;;;;;18.50;78.70;;;;;;5091403;28;20523;-80
2022/12/15 12:03:57;;;;;;;8.88;4.10;;;18.40;79.40;;;;;;5078943;28;20392;-80
2022/12/15 12:06:44;;;;;;;9.00;4.45;;;18.10;79.10;;;;;;5092929;28;20047;-80
2022/12/15 12:09:48;;;;;;;9.60;4.05;;;17.50;79.30;;;;;;5078040;28;20503;-83
2022/12/15 12:12:32;;;;;;;10.48;3.95;;;17.50;79.40;;;;;;5055040;27;20130;-82
2022/12/15 12:15:06;;;;;;;7.78;4.25;;;17.80;79.10;;;;;;5110679;28;20376;-83
2022/12/15 12:17:49;;;;;;;9.02;4.03;;;17.90;78.80;;;;;;5085797;28;20056;-82
2022/12/15 12:20:18;;;;;;;13.25;4.50;;;17.90;77.90;;;;;;5072218;28;20064;-83
2022/12/15 12:23:03;;;;;;;10.27;4.50;;;17.60;78.50;;;;;;5055747;28;20420;-82
2022/12/15 12:25:38;;;;;;;9.02;4.20;;;17.30;78.90;;;;;;5090229;28;20044;-84
2022/12/15 12:28:43;;;;;;;7.85;4.10;;;17.50;79.20;;;;;;5093004;28;20060;-87
2022/12/15 12:31:21;;;;;;;11.07;3.90;;;18.20;78.30;;;;;;5084046;28;20478;-88
2022/12/15 12:33:50;;;;;;;10.23;4.05;;;18.60;76.90;;;;;;5092182;28;20044;-89
2022/12/15 12:36:16;;;;;;;8.57;3.78;;;18.70;76.60;;;;;;5091998;27;20047;-88
2022/12/15 12:38:49;;;;;;;8.85;3.55;;;18.90;75.50;;;;;;5096289;28;20197;-88
2022/12/15 12:41:29;;;;;;;7.30;3.67;;;18.20;76.30;;;;;;5088082;27;20453;-89
2022/12/15 12:43:59;;;;;;;9.50;4.18;;;17.70;77.30;;;;;;5115690;27;20524;-88
2022/12/15 12:47:13;;;;;;;8.75;4.15;;;17.70;77.00;;;;;;5114822;27;20043;-89
2022/12/15 12:49:45;;;;;;;8.15;4.40;;;18.30;76.10;;;;;;5016549;28;20053;-88
2022/12/15 12:52:25;;;;;;;9.15;4.32;;;18.30;76.40;;;;;;5109567;27;20110;-88
2022/12/15 12:55:25;;;;;;;9.32;4.30;;;18.30;76.30;;;;;;5135045;27;20090;-88
2022/12/15 12:57:51;;;;;;;10.38;4.13;;;17.80;76.50;;;;;;5054884;28;20048;-89
2022/12/15 13:00:19;;;;;;;10.10;4.30;;;17.10;77.60;;;;;;5075855;28;20067;-88
2022/12/15 13:03:20;;;;;;;11.02;4.10;;;16.20;78.30;;;;;;5075729;28;20047;-88
2022/12/15 13:05:47;;;;;;;8.73;3.75;;;15.70;79.70;;;;;;5059112;28;20134;-89
2022/12/15 13:08:13;;;;;;;10.18;4.47;;;15.60;79.60;;;;;;5076732;28;20048;-88
2022/12/15 13:10:45;;;;;;;12.10;3.70;;;15.30;80.30;;;;;;5076638;27;20056;-88
2022/12/15 13:13:29;;;;;;;9.70;4.05;;;15.10;80.80;;;;;;5092682;28;20127;-88
2022/12/15 13:16:06;;;;;;;11.10;3.42;;;;;;;;;;5074146;28;20099;-88
2022/12/15 13:18:52;;;;;;;9.35;3.85;;;;;;;;;;5090906;28;20047;-88
2022/12/15 13:21:38;;;;;;;8.73;3.90;;;;;;;;;;5131376;27;20086;-87
2022/12/15 13:24:04;;;;;;;9.27;4.10;;;;;;;;;;5087145;28;20044;-87
2022/12/15 13:26:30;;;;;;;12.77;4.20;;;14.70;81.70;;;;;;5089113;28;20437;-86
2022/12/15 13:28:56;;;;;;;11.57;4.50;;;9.90;93.40;;;;;;5068722;28;20123;-88
2022/12/15 13:31:27;;;;;;;10.18;4.07;;;9.10;95.60;;;;;;5074236;28;20064;-88
2022/12/15 13:34:08;;;;;;;9.90;4.53;;;8.50;98.10;;;;;;5075136;27;20039;-88
2022/12/15 13:36:40;;;;;;;8.02;4.50;;;8.10;99.90;;;;;;5098372;28;20051;-87
2022/12/15 13:39:11;;;;;;;10.50;4.38;;;7.80;99.90;;;;;;5095923;28;20086;-88
2022/12/15 13:42:00;;;;;;;10.13;3.60;;;7.40;99.90;;;;;;5065521;28;20130;-87
2022/12/15 13:44:42;;;;;;;8.98;4.15;;;7.10;99.90;;;;;;5094570;28;20115;-86
2022/12/15 13:47:21;;;;;;;16.25;4.15;;;6.90;99.90;;;;;;5078736;28;20503;-85
2022/12/15 13:50:08;;;;;;;12.40;4.35;;;6.70;99.90;;;;;;5095199;28;20155;-84
2022/12/15 13:52:48;;;;;;;11.10;3.88;;;6.50;99.90;;;;;;5092228;28;20051;-85
2022/12/15 13:55:20;;;;;;;11.73;3.80;;;6.30;99.90;;;;;;5103881;28;20071;-84
2022/12/15 13:57:55;;;;;;;11.15;3.90;;;6.30;99.90;;;;;;5091853;28;20085;-85
2022/12/15 14:00:21;;;;;;;9.70;3.50;;;6.10;99.90;;;;;;5104091;28;20066;-84
2022/12/15 14:02:47;;;;;;;11.00;4.07;;;6.00;99.90;;;;;;5074042;28;23303;-85
2022/12/15 14:05:22;;;;;;;6.22;3.65;;;5.90;99.90;;;;;;5098274;28;20055;-85
2022/12/15 14:07:56;;;;;;;9.23;4.40;;;5.80;99.90;;;;;;5076897;28;20059;-85
2022/12/15 14:10:27;;;;;;;10.40;3.88;;;5.70;99.90;;;;;;5091556;28;20140;-85
2022/12/15 14:12:56;;;;;;;10.88;4.45;;;5.50;99.90;;;;;;5090832;28;20048;-84
2022/12/15 14:15:32;;;;;;;9.13;4.28;;;5.40;99.90;;;;;;5102483;28;20059;-84
2022/12/15 14:18:00;;;;;;;11.77;4.70;;;5.40;99.90;;;;;;5090120;27;20053;-85
2022/12/15 14:20:38;;;;;;;12.85;5.03;;;5.40;99.90;;;;;;5097227;28;20064;-85
2022/12/15 14:23:43;;;;;;;12.63;5.00;;;5.20;99.90;;;;;;5080837;27;20047;-84
2022/12/15 14:26:11;;;;;;;9.77;4.65;;;5.20;99.90;;;;;;5003167;28;20180;-86
2022/12/15 14:28:40;;;;;;;10.60;5.18;;;5.10;99.90;;;;;;5001142;28;20427;-82
2022/12/15 14:31:18;;;;;;;11.48;5.10;;;5.00;99.90;;;;;;5050645;28;20044;-85
2022/12/15 14:34:04;;;;;;;9.07;5.03;;;5.00;99.90;;;;;;5075978;28;20056;-86
2022/12/15 14:36:30;;;;;;;13.32;5.35;;;5.00;99.90;;;;;;5095181;28;20447;-88
2022/12/15 14:39:14;;;;;;;13.68;5.72;;;4.90;99.90;;;;;;5083035;28;20455;-83
2022/12/15 14:41:45;;;;;;;10.65;5.20;;;5.00;99.90;;;;;;5083417;27;20127;-82
2022/12/15 14:44:36;;;;;;;10.40;5.20;;;4.80;99.90;;;;;;5124606;27;20472;-83
2022/12/15 14:47:05;;;;;;;12.80;5.75;;;4.70;99.90;;;;;;5083748;28;20416;-84
2022/12/15 14:49:37;;;;;;;15.35;6.15;;;4.80;99.90;;;;;;5115315;28;20048;-83
2022/12/15 14:52:06;;;;;;;11.30;5.25;;;4.70;99.90;;;;;;5097626;28;20051;-81
2022/12/15 14:54:57;;;;;;;16.05;5.78;;;4.70;99.90;;;;;;5111946;28;20063;-83
2022/12/15 14:57:51;;;;;;;12.30;6.13;;;4.70;99.90;;;;;;5114026;28;20070;-85
2022/12/15 15:00:30;;;;;;;12.30;5.90;;;4.60;99.90;;;;;;5084500;27;20404;-85
2022/12/15 15:03:35;;;;;;;14.45;6.00;;;4.60;99.90;;;;;;5095136;28;20144;-85
2022/12/15 15:06:14;;;;;;;12.80;5.55;;;4.50;99.90;;;;;;5069226;27;20043;-88
2022/12/15 15:08:46;;;;;;;14.45;5.18;;;4.40;99.90;;;;;;5101042;27;20067;-87
2022/12/15 15:11:30;;;;;;;12.93;5.13;;;4.50;99.90;;;;;;5136110;27;20047;-88
2022/12/15 15:13:59;;;;;;;12.45;5.40;;;5.90;99.90;;;;;;5112877;27;20039;-86
2022/12/15 15:16:26;;;;;;;15.07;5.57;;;4.50;99.90;;;;;;5136585;27;20142;-87
2022/12/15 15:18:53;;;;;;;13.18;5.50;;;4.50;99.90;;;;;;5082334;28;20497;-87
2022/12/15 15:21:23;;;;;;;13.35;4.60;;;4.50;99.90;;;;;;5082453;28;20438;-85
2022/12/15 15:23:59;;;;;;;14.32;5.78;;;4.80;99.90;;;;;;5076940;28;20472;-86
2022/12/15 15:26:26;;;;;;;;;;;5.40;99.90;;;;;;5060632;28;20376;-84
2022/12/15 15:28:52;;;;;;;11.23;5.43;;;4.40;99.90;;;;;;5072553;28;19920;-84
2022/12/15 15:31:24;;;;;;;9.75;5.05;;;5.10;99.90;;;;;;5074153;28;20059;-87
2022/12/15 15:33:51;;;;;;;18.15;6.22;;;4.20;99.90;;;;;;5060681;28;20067;-84
2022/12/15 15:36:17;;;;;;;15.40;5.88;;;5.10;99.90;;;;;;5076497;28;20101;-87
2022/12/15 15:38:45;;;;;;;12.55;5.70;;;4.10;99.90;;;;;;5060911;28;20052;-85
2022/12/15 15:41:14;;;;;;;13.57;5.60;;;4.80;99.90;;;;;;5088064;28;20415;-88
2022/12/15 15:43:40;;;;;;;11.18;5.90;;;4.00;99.90;;;;;;5087198;28;20134;-86
2022/12/15 15:46:24;;;;;;;15.60;5.90;;;4.00;99.90;;;;;;5114763;28;20046;-86
2022/12/15 15:48:55;;;;;;;10.07;5.40;;;4.00;99.90;;;;;;5059923;28;20114;-85